EDT,Max TemperatureF,Mean TemperatureF,Min TemperatureF,Max Dew PointF,MeanDew PointF,Min DewpointF,Max Humidity, Mean Humidity, Min Humidity, Max Sea Level PressureIn, Mean Sea Level PressureIn, Min Sea Level PressureIn, Max VisibilityMiles, Mean VisibilityMiles, Min VisibilityMiles, Max Wind SpeedMPH, Mean Wind SpeedMPH, Max Gust SpeedMPH,PrecipitationIn, CloudCover, Events, WindDirDegrees
2013-3-1,47,42,36,30,28,24,69,59,42,29.94,29.87,29.79,10,10,10,18,9,24,0.00,8,,307
2013-3-2,38,32,25,26,23,20,92,66,50,29.95,29.92,29.88,10,10,10,16,6,21,0.00,6,,317
2013-3-3,43,33,23,22,19,17,86,58,37,29.98,29.91,29.85,10,10,10,22,7,29,0.00,2,,317
2013-3-4,48,37,26,20,16,14,73,48,30,30.09,30.03,29.98,10,10,10,20,9,31,0.00,0,,313
2013-3-5,52,37,23,35,23,18,99,61,29,30.13,30.02,29.82,10,9,1,13,2,,0.04,5,Rain-Snow,107
2013-3-6,38,36,33,36,34,32,99,94,78,30.03,29.76,29.58,10,5,1,29,12,40,1.04,7,Rain-Snow-Thunderstorm,360
2013-3-7,48,40,32,32,30,27,91,66,48,30.21,30.13,30.04,10,10,10,26,12,32,0.00,3,,320
2013-3-8,48,41,34,32,29,26,78,63,51,30.32,30.24,30.18,10,10,10,28,14,37,0.00,3,,316
2013-3-9,61,46,31,31,27,23,87,57,24,30.40,30.34,30.29,10,10,10,13,5,17,0.00,0,,335
2013-3-10,64,45,26,36,28,24,96,60,22,30.38,30.32,30.26,10,10,10,12,3,17,0.00,0,,127
2013-3-11,64,52,40,51,46,35,99,79,57,30.28,30.14,29.97,10,9,3,13,6,16,0.00,5,Rain,155
2013-3-12,60,51,42,59,48,32,99,77,55,30.00,29.87,29.75,10,9,2,23,11,22,0.54,6,Rain,1
2013-3-13,51,40,28,34,27,17,99,61,36,30.13,30.01,29.95,10,10,5,21,7,28,0.00,3,,304
2013-3-14,49,38,28,21,18,15,72,47,27,30.21,30.14,30.08,10,10,10,23,9,32,0.00,0,,302
2013-3-15,58,40,22,33,25,19,92,61,29,30.15,30.01,29.84,10,10,10,15,2,22,0.00,0,,222
2013-3-16,64,48,33,50,41,31,94,79,59,29.94,29.80,29.66,10,10,5,13,2,18,0.03,4,Rain,84
2013-3-17,41,37,33,37,34,32,100,93,73,30.33,30.16,29.94,10,4,1,6,2,,0.22,6,Rain-Snow,347
2013-3-18,36,34,32,36,34,32,100,98,95,30.36,30.21,29.94,10,3,1,12,2,,0.38,8,Rain-Snow,36
2013-3-19,63,48,32,42,29,8,100,68,18,29.98,29.86,29.76,10,7,0,18,4,30,0.00,4,Fog,260
2013-3-20,55,44,32,25,14,6,56,30,19,30.06,29.95,29.81,10,10,10,21,8,29,0.00,2,,277
2013-3-21,43,34,24,28,18,10,81,53,33,29.97,29.86,29.80,10,10,7,22,13,31,0.00,5,Snow,330
2013-3-22,50,37,24,22,16,11,74,45,27,30.05,29.98,29.92,10,10,10,16,5,20,0.00,0,,269
2013-3-23,54,38,21,26,22,19,94,56,26,30.10,30.03,29.95,10,10,10,13,2,17,0.00,1,,287
2013-3-24,42,36,29,34,27,22,100,71,44,30.05,29.89,29.69,10,8,0,10,3,,0.00,4,Rain-Snow,53
2013-3-25,39,36,32,37,34,33,100,97,88,29.76,29.63,29.57,10,6,1,9,3,,0.37,8,Rain-Snow,307
2013-3-26,48,38,28,36,31,27,100,74,43,30.05,29.91,29.76,10,8,0,18,4,26,0.00,5,Fog,302
2013-3-27,51,41,31,29,27,24,81,57,37,30.19,30.11,30.05,10,10,10,23,9,31,0.00,2,,300
2013-3-28,51,39,27,31,28,25,92,61,41,30.29,30.20,30.15,10,10,10,22,7,29,0.00,4,,306
2013-3-29,57,46,35,33,30,25,86,59,33,30.32,30.26,30.20,10,10,10,15,2,20,0.00,6,,315
2013-3-30,62,46,29,34,28,25,93,56,26,30.27,30.21,30.14,10,10,10,13,2,20,0.00,2,,291
2013-3-31,54,46,37,52,42,29,100,81,53,30.16,29.95,29.80,10,8,2,10,3,,0.02,5,Rain,177